Time,TemperatureF,DewpointF,PressureIn,WindDirection,WindDirectionDegrees,WindSpeedMPH,WindSpeedGustMPH,Humidity,HourlyPrecipIn,Conditions,Clouds,dailyrainin,SoftwareType,DateUTC
2013-01-17 00:00:00,38.9,38.9,29.97,WNW,300,4.8,51.0,100,7.87,,,0.00,VWS V13.01,2013-01-17 05:00:00,
2013-01-17 00:01:00,38.8,38.8,29.96,NW,321,2.1,51.0,100,7.87,,,0.00,VWS V13.01,2013-01-17 05:01:00,
2013-01-17 00:02:00,38.9,38.9,29.96,NW,304,4.3,51.0,100,7.87,,,0.00,VWS V13.01,2013-01-17 05:02:00,
2013-01-17 00:03:00,39.1,39.1,29.96,NW,323,0.9,51.0,100,7.87,,,0.00,VWS V13.01,2013-01-17 05:03:00,
2013-01-17 00:08:00,39.0,39.0,29.97,North,353,5.5,51.0,100,7.87,,,0.00,VWS V13.01,2013-01-17 05:08:00,
2013-01-17 00:13:00,39.0,39.0,29.98,NNW,339,5.4,51.0,100,7.87,,,0.00,VWS V13.01,2013-01-17 05:13:00,
2013-01-17 00:18:00,39.0,39.0,29.97,NNW,332,2.4,51.0,100,7.87,,,0.00,VWS V13.01,2013-01-17 05:18:00,
2013-01-17 00:23:00,39.0,39.0,29.97,NW,308,6.2,51.0,100,7.87,,,0.00,VWS V13.01,2013-01-17 05:23:00,
2013-01-17 00:28:00,39.2,39.2,29.97,WNW,300,3.0,51.0,100,7.87,,,0.00,VWS V13.01,2013-01-17 05:28:00,
2013-01-17 00:33:00,39.2,39.2,29.98,NW,319,3.4,51.0,100,7.87,,,0.00,VWS V13.01,2013-01-17 05:33:00,
2013-01-17 00:38:00,39.0,39.0,29.97,WNW,298,5.1,51.0,100,7.87,,,0.00,VWS V13.01,2013-01-17 05:38:00,
2013-01-17 00:43:00,39.0,39.0,29.98,NW,323,4.6,51.0,100,7.87,,,0.00,VWS V13.01,2013-01-17 05:43:00,
2013-01-17 00:48:00,39.3,39.3,29.99,WNW,298,6.3,51.0,100,7.87,,,0.00,VWS V13.01,2013-01-17 05:48:00,
2013-01-17 00:53:00,39.4,39.4,29.97,NNW,329,3.5,51.0,100,7.87,,,0.00,VWS V13.01,2013-01-17 05:53:00,
2013-01-17 00:58:00,39.2,39.2,29.97,NW,318,5.1,51.0,100,7.87,,,0.00,VWS V13.01,2013-01-17 05:58:00,
2013-01-17 01:03:00,39.5,39.5,29.97,West,277,4.3,51.0,100,7.87,,,0.00,VWS V13.01,2013-01-17 06:03:00,
2013-01-17 01:08:00,39.3,39.3,29.98,WNW,297,4.7,51.0,100,7.87,,,0.00,VWS V13.01,2013-01-17 06:08:00,
2013-01-17 01:13:00,39.4,39.4,29.98,WNW,298,4.4,51.0,100,7.87,,,0.00,VWS V13.01,2013-01-17 06:13:00,
2013-01-17 01:18:00,39.5,39.5,29.98,NW,308,2.9,51.0,100,7.87,,,0.00,VWS V13.01,2013-01-17 06:18:00,
2013-01-17 01:23:00,39.4,39.4,29.99,WNW,297,6.8,51.0,100,7.87,,,0.00,VWS V13.01,2013-01-17 06:23:00,
2013-01-17 01:28:00,39.8,39.8,29.99,WNW,287,4.6,51.0,100,7.87,,,0.00,VWS V13.01,2013-01-17 06:28:00,
2013-01-17 01:33:00,39.6,39.6,29.98,WSW,256,2.9,51.0,100,7.87,,,0.00,VWS V13.01,2013-01-17 06:33:00,
2013-01-17 01:38:00,39.8,39.8,29.97,NW,311,4.3,51.0,100,7.87,,,0.00,VWS V13.01,2013-01-17 06:38:00,
2013-01-17 01:43:00,39.5,39.5,29.97,WNW,284,4.7,51.0,100,7.87,,,0.00,VWS V13.01,2013-01-17 06:43:00,
2013-01-17 01:48:00,39.5,39.5,29.98,WNW,300,4.7,51.0,100,7.87,,,0.00,VWS V13.01,2013-01-17 06:48:00,
2013-01-17 01:53:00,39.7,39.7,29.98,NW,308,4.3,51.0,100,7.87,,,0.00,VWS V13.01,2013-01-17 06:53:00,
2013-01-17 01:58:00,39.7,39.7,29.98,WNW,291,4.3,51.0,100,7.87,,,0.00,VWS V13.01,2013-01-17 06:58:00,
2013-01-17 02:03:00,39.8,39.8,29.98,West,280,2.2,51.0,100,7.87,,,0.00,VWS V13.01,2013-01-17 07:03:00,
2013-01-17 02:08:00,39.5,39.5,29.99,NW,305,6.2,51.0,100,7.87,,,0.00,VWS V13.01,2013-01-17 07:08:00,
2013-01-17 02:13:00,39.6,39.6,29.99,WNW,290,2.2,51.0,100,7.87,,,0.00,VWS V13.01,2013-01-17 07:13:00,
2013-01-17 02:18:00,39.6,39.6,30.00,WNW,298,3.6,51.0,100,7.87,,,0.00,VWS V13.01,2013-01-17 07:18:00,
2013-01-17 02:23:00,39.5,39.5,29.99,NW,316,4.2,51.0,100,7.87,,,0.00,VWS V13.01,2013-01-17 07:23:00,
2013-01-17 02:28:00,39.5,39.5,29.99,WNW,302,2.8,51.0,100,7.87,,,0.00,VWS V13.01,2013-01-17 07:28:00,
2013-01-17 02:33:00,39.4,39.4,29.99,WNW,300,3.0,51.0,100,7.87,,,0.00,VWS V13.01,2013-01-17 07:33:00,
2013-01-17 02:38:00,39.5,39.5,29.99,WNW,283,5.3,51.0,100,7.87,,,0.00,VWS V13.01,2013-01-17 07:38:00,
2013-01-17 02:43:00,39.4,39.4,29.99,WNW,290,6.8,51.0,100,7.87,,,0.00,VWS V13.01,2013-01-17 07:43:00,
2013-01-17 02:48:00,39.5,39.5,30.00,WNW,285,4.8,51.0,100,7.87,,,0.00,VWS V13.01,2013-01-17 07:48:00,
2013-01-17 02:53:00,39.4,39.4,30.00,NW,309,5.3,51.0,100,7.87,,,0.00,VWS V13.01,2013-01-17 07:53:00,
2013-01-17 02:58:00,39.4,39.4,30.00,WNW,294,5.0,51.0,100,7.87,,,0.00,VWS V13.01,2013-01-17 07:58:00,
2013-01-17 03:03:00,39.6,39.6,30.00,NW,307,4.9,51.0,100,7.87,,,0.00,VWS V13.01,2013-01-17 08:03:00,
2013-01-17 03:08:00,39.6,39.6,30.00,NW,311,3.4,51.0,100,7.87,,,0.00,VWS V13.01,2013-01-17 08:08:00,
2013-01-17 03:13:00,39.6,39.6,30.00,WNW,288,4.2,51.0,100,7.87,,,0.00,VWS V13.01,2013-01-17 08:13:00,
2013-01-17 03:18:00,39.5,39.5,29.99,NW,305,3.0,51.0,100,7.87,,,0.00,VWS V13.01,2013-01-17 08:18:00,
2013-01-17 03:23:00,39.5,39.5,29.99,NW,309,5.0,51.0,100,7.87,,,0.00,VWS V13.01,2013-01-17 08:23:00,
2013-01-17 03:28:00,39.2,39.2,29.99,NW,311,4.0,51.0,100,7.87,,,0.00,VWS V13.01,2013-01-17 08:28:00,
2013-01-17 03:33:00,39.4,39.4,29.98,NW,323,3.3,51.0,100,7.87,,,0.00,VWS V13.01,2013-01-17 08:33:00,
2013-01-17 03:38:00,39.5,39.5,29.99,WNW,294,3.5,51.0,100,7.87,,,0.00,VWS V13.01,2013-01-17 08:38:00,
2013-01-17 03:43:00,39.5,39.5,29.99,WNW,291,3.4,51.0,100,7.87,,,0.00,VWS V13.01,2013-01-17 08:43:00,
2013-01-17 03:48:00,39.5,39.5,29.99,WNW,294,2.7,51.0,100,7.87,,,0.00,VWS V13.01,2013-01-17 08:48:00,
2013-01-17 03:53:00,39.3,39.3,29.98,NW,312,3.9,51.0,100,7.87,,,0.00,VWS V13.01,2013-01-17 08:53:00,
2013-01-17 03:58:00,39.4,39.4,29.98,WNW,298,4.0,51.0,100,7.87,,,0.00,VWS V13.01,2013-01-17 08:58:00,
2013-01-17 04:03:00,39.5,39.5,29.98,NW,311,4.6,51.0,100,7.87,,,0.00,VWS V13.01,2013-01-17 09:03:00,
2013-01-17 04:08:00,39.3,39.3,29.99,West,273,3.2,51.0,100,7.87,,,0.00,VWS V13.01,2013-01-17 09:08:00,
2013-01-17 04:13:00,39.3,39.3,29.97,NW,304,1.6,51.0,100,7.87,,,0.00,VWS V13.01,2013-01-17 09:13:00,
2013-01-17 04:18:00,39.4,39.4,29.98,NW,326,2.8,51.0,100,7.87,,,0.00,VWS V13.01,2013-01-17 09:18:00,
2013-01-17 04:23:00,39.5,39.5,29.98,NW,325,2.9,51.0,100,7.87,,,0.00,VWS V13.01,2013-01-17 09:23:00,
2013-01-17 04:28:00,39.5,39.5,29.98,NW,326,2.7,51.0,100,7.87,,,0.00,VWS V13.01,2013-01-17 09:28:00,
2013-01-17 04:33:00,39.5,39.5,29.98,WNW,301,1.5,51.0,100,7.87,,,0.00,VWS V13.01,2013-01-17 09:33:00,
2013-01-17 04:38:00,39.6,39.6,29.99,West,277,2.6,51.0,100,7.87,,,0.00,VWS V13.01,2013-01-17 09:38:00,
2013-01-17 04:43:00,39.4,39.4,29.99,WNW,294,4.7,51.0,100,7.87,,,0.00,VWS V13.01,2013-01-17 09:43:00,
2013-01-17 04:48:00,39.6,39.6,29.98,WNW,290,3.2,51.0,100,7.87,,,0.00,VWS V13.01,2013-01-17 09:48:00,
2013-01-17 04:53:00,39.6,39.6,29.98,NW,312,2.7,51.0,100,7.87,,,0.00,VWS V13.01,2013-01-17 09:53:00,
2013-01-17 04:58:00,39.7,39.7,29.99,WNW,292,3.0,51.0,100,7.87,,,0.00,VWS V13.01,2013-01-17 09:58:00,
2013-01-17 05:02:00,39.5,39.5,29.99,WNW,297,3.5,51.0,100,7.87,,,0.00,VWS V13.01,2013-01-17 10:02:00,
2013-01-17 05:07:00,39.7,39.7,29.98,NNW,335,0.0,51.0,100,7.87,,,0.00,VWS V13.01,2013-01-17 10:07:00,
2013-01-17 05:12:00,39.4,39.4,29.98,WNW,297,2.8,51.0,100,7.87,,,0.00,VWS V13.01,2013-01-17 10:12:00,
2013-01-17 05:17:00,39.4,39.4,29.99,West,277,2.2,51.0,100,7.87,,,0.00,VWS V13.01,2013-01-17 10:17:00,
2013-01-17 05:22:00,39.1,39.1,29.99,WNW,295,1.4,51.0,100,7.87,,,0.00,VWS V13.01,2013-01-17 10:22:00,
2013-01-17 05:27:00,39.5,39.5,29.98,WNW,300,3.2,51.0,100,7.87,,,0.00,VWS V13.01,2013-01-17 10:27:00,
2013-01-17 05:32:00,39.2,39.2,29.99,NW,307,1.5,51.0,100,7.87,,,0.00,VWS V13.01,2013-01-17 10:32:00,
2013-01-17 05:37:00,39.3,39.3,30.00,NW,321,3.7,51.0,100,7.87,,,0.00,VWS V13.01,2013-01-17 10:37:00,
2013-01-17 05:42:00,39.0,39.0,29.99,West,276,0.0,51.0,100,7.87,,,0.00,VWS V13.01,2013-01-17 10:42:00,
2013-01-17 05:47:00,39.0,39.0,30.00,NW,311,2.1,51.0,100,7.87,,,0.00,VWS V13.01,2013-01-17 10:47:00,
2013-01-17 05:52:00,39.1,39.1,30.00,WNW,292,0.0,51.0,100,7.87,,,0.00,VWS V13.01,2013-01-17 10:52:00,
2013-01-17 05:57:00,39.2,39.2,30.00,WNW,297,1.7,51.0,100,7.87,,,0.00,VWS V13.01,2013-01-17 10:57:00,
2013-01-17 06:02:00,39.3,39.3,30.00,WNW,300,5.0,51.0,100,7.87,,,0.00,VWS V13.01,2013-01-17 11:02:00,
2013-01-17 06:07:00,39.0,39.0,30.00,WNW,298,5.1,51.0,100,7.87,,,0.00,VWS V13.01,2013-01-17 11:07:00,
2013-01-17 06:12:00,39.3,39.3,30.01,NW,322,4.2,51.0,100,7.87,,,0.00,VWS V13.01,2013-01-17 11:12:00,
2013-01-17 06:17:00,39.3,39.2,30.02,NW,321,3.0,51.0,100,7.87,,,0.00,VWS V13.01,2013-01-17 11:17:00,
2013-01-17 06:22:00,39.1,39.0,30.02,NW,326,5.5,51.0,99,7.87,,,0.00,VWS V13.01,2013-01-17 11:22:00,
2013-01-17 06:27:00,39.3,39.1,30.03,WNW,302,5.2,51.0,99,7.87,,,0.00,VWS V13.01,2013-01-17 11:27:00,
2013-01-17 06:32:00,39.4,39.1,30.03,WNW,287,4.1,51.0,99,7.87,,,0.00,VWS V13.01,2013-01-17 11:32:00,
2013-01-17 06:37:00,39.5,39.2,30.03,NW,315,4.0,51.0,99,7.87,,,0.00,VWS V13.01,2013-01-17 11:37:00,
2013-01-17 06:42:00,39.3,39.0,30.04,NW,322,4.3,51.0,99,7.87,,,0.00,VWS V13.01,2013-01-17 11:42:00,
2013-01-17 06:47:00,39.3,38.9,30.03,NNW,335,4.9,51.0,99,7.87,,,0.00,VWS V13.01,2013-01-17 11:47:00,
2013-01-17 06:52:00,39.5,39.1,30.04,NNW,332,3.5,51.0,98,7.87,,,0.00,VWS V13.01,2013-01-17 11:52:00,
2013-01-17 06:57:00,39.4,39.0,30.05,WNW,301,3.4,51.0,98,7.87,,,0.00,VWS V13.01,2013-01-17 11:57:00,
2013-01-17 07:02:00,39.4,39.0,30.05,NNW,329,4.9,51.0,98,7.87,,,0.00,VWS V13.01,2013-01-17 12:02:00,
2013-01-17 07:07:00,39.3,38.8,30.05,NW,314,1.1,51.0,98,7.87,,,0.00,VWS V13.01,2013-01-17 12:07:00,
2013-01-17 07:12:00,39.3,38.8,30.05,WNW,295,3.0,51.0,98,7.87,,,0.00,VWS V13.01,2013-01-17 12:12:00,
2013-01-17 07:17:00,39.3,38.8,30.05,NW,323,4.2,51.0,98,7.87,,,0.00,VWS V13.01,2013-01-17 12:17:00,
2013-01-17 07:22:00,39.1,38.6,30.05,NW,319,2.5,51.0,98,7.87,,,0.00,VWS V13.01,2013-01-17 12:22:00,
2013-01-17 07:27:00,39.0,38.5,30.06,NNW,333,3.7,51.0,98,7.87,,,0.00,VWS V13.01,2013-01-17 12:27:00,
2013-01-17 07:32:00,39.1,38.6,30.06,NW,326,4.9,51.0,98,7.87,,,0.00,VWS V13.01,2013-01-17 12:32:00,
2013-01-17 07:37:00,39.1,38.5,30.07,WNW,294,3.9,51.0,98,7.87,,,0.00,VWS V13.01,2013-01-17 12:37:00,
2013-01-17 07:42:00,38.8,38.2,30.06,NNW,346,3.2,51.0,98,7.87,,,0.00,VWS V13.01,2013-01-17 12:42:00,
2013-01-17 07:47:00,39.1,38.4,30.06,NW,316,1.2,51.0,97,7.87,,,0.00,VWS V13.01,2013-01-17 12:47:00,
2013-01-17 07:52:00,39.1,38.4,30.06,NNW,340,5.9,51.0,97,7.87,,,0.00,VWS V13.01,2013-01-17 12:52:00,
2013-01-17 07:57:00,39.0,38.2,30.07,NNW,333,5.7,51.0,97,7.87,,,0.00,VWS V13.01,2013-01-17 12:57:00,
2013-01-17 08:02:00,39.1,38.3,30.08,NW,319,3.3,51.0,97,7.87,,,0.00,VWS V13.01,2013-01-17 13:02:00,
2013-01-17 08:07:00,39.1,38.2,30.08,NNW,342,3.8,51.0,97,7.87,,,0.00,VWS V13.01,2013-01-17 13:07:00,
2013-01-17 08:12:00,39.2,38.3,30.08,NNW,345,5.7,51.0,96,7.87,,,0.00,VWS V13.01,2013-01-17 13:12:00,
2013-01-17 08:17:00,39.1,38.2,30.08,NNW,330,4.2,51.0,96,7.87,,,0.00,VWS V13.01,2013-01-17 13:17:00,
2013-01-17 08:22:00,39.4,38.4,30.09,NNE,14,2.5,51.0,96,7.87,,,0.00,VWS V13.01,2013-01-17 13:22:00,
2013-01-17 08:27:00,39.4,38.4,30.09,NNW,333,6.2,51.0,96,7.87,,,0.00,VWS V13.01,2013-01-17 13:27:00,
2013-01-17 08:32:00,39.6,38.6,30.09,NW,318,5.0,51.0,96,7.87,,,0.00,VWS V13.01,2013-01-17 13:32:00,
2013-01-17 08:37:00,39.5,38.4,30.10,NW,315,3.4,51.0,96,7.87,,,0.00,VWS V13.01,2013-01-17 13:37:00,
2013-01-17 08:42:00,39.6,38.5,30.10,NNW,338,2.6,51.0,96,7.87,,,0.00,VWS V13.01,2013-01-17 13:42:00,
2013-01-17 08:47:00,39.7,38.6,30.10,NW,322,7.1,51.0,96,7.87,,,0.00,VWS V13.01,2013-01-17 13:47:00,
2013-01-17 08:52:00,39.6,38.5,30.10,NW,325,2.6,51.0,96,7.87,,,0.00,VWS V13.01,2013-01-17 13:52:00,
2013-01-17 08:57:00,39.6,38.5,30.10,NW,323,3.0,51.0,96,7.87,,,0.00,VWS V13.01,2013-01-17 13:57:00,
2013-01-17 09:02:00,39.7,38.5,30.10,North,349,2.2,51.0,96,7.87,,,0.00,VWS V13.01,2013-01-17 14:02:00,
2013-01-17 09:07:00,39.8,38.6,30.10,NNW,346,5.2,51.0,96,7.87,,,0.00,VWS V13.01,2013-01-17 14:07:00,
2013-01-17 09:12:00,39.7,38.5,30.10,NW,305,3.2,51.0,95,7.87,,,0.00,VWS V13.01,2013-01-17 14:12:00,
2013-01-17 09:17:00,39.8,38.6,30.10,NNW,333,3.5,51.0,95,7.87,,,0.00,VWS V13.01,2013-01-17 14:17:00,
2013-01-17 09:22:00,39.7,38.5,30.10,NNW,330,4.6,51.0,95,7.87,,,0.00,VWS V13.01,2013-01-17 14:22:00,
2013-01-17 09:27:00,39.9,38.7,30.11,NW,318,5.1,51.0,95,7.87,,,0.00,VWS V13.01,2013-01-17 14:27:00,
2013-01-17 09:32:00,39.7,38.5,30.11,North,359,2.5,51.0,95,7.87,,,0.00,VWS V13.01,2013-01-17 14:32:00,
2013-01-17 09:37:00,40.2,39.0,30.11,NW,325,2.9,51.0,95,7.87,,,0.00,VWS V13.01,2013-01-17 14:37:00,
2013-01-17 09:42:00,40.0,38.8,30.12,NW,321,3.4,51.0,95,7.87,,,0.00,VWS V13.01,2013-01-17 14:42:00,
2013-01-17 09:47:00,40.2,38.9,30.11,NW,312,3.0,51.0,95,7.87,,,0.00,VWS V13.01,2013-01-17 14:47:00,
2013-01-17 09:52:00,40.1,38.8,30.12,NW,307,2.7,51.0,95,7.87,,,0.00,VWS V13.01,2013-01-17 14:52:00,
2013-01-17 09:57:00,40.3,39.0,30.11,NNW,333,2.1,51.0,95,7.87,,,0.00,VWS V13.01,2013-01-17 14:57:00,
2013-01-17 10:02:00,40.8,39.4,30.11,NW,305,1.9,51.0,95,7.87,,,0.00,VWS V13.01,2013-01-17 15:02:00,
2013-01-17 10:07:00,40.8,39.4,30.10,NW,309,1.8,51.0,95,7.87,,,0.00,VWS V13.01,2013-01-17 15:07:00,
2013-01-17 10:12:00,41.3,39.7,30.10,NNW,328,0.7,51.0,94,7.87,,,0.00,VWS V13.01,2013-01-17 15:12:00,
2013-01-17 10:17:00,41.4,39.6,30.10,NNW,330,8.6,51.0,93,7.87,,,0.00,VWS V13.01,2013-01-17 15:17:00,
2013-01-17 10:22:00,41.4,39.5,30.10,NW,323,4.8,51.0,93,7.87,,,0.00,VWS V13.01,2013-01-17 15:22:00,
2013-01-17 10:27:00,41.3,39.4,30.10,NNW,336,4.7,51.0,93,7.87,,,0.00,VWS V13.01,2013-01-17 15:27:00,
2013-01-17 10:32:00,41.1,39.2,30.11,NNW,330,4.7,51.0,93,7.87,,,0.00,VWS V13.01,2013-01-17 15:32:00,
2013-01-17 10:37:00,40.9,39.0,30.10,NNW,339,3.8,51.0,93,7.87,,,0.00,VWS V13.01,2013-01-17 15:37:00,
2013-01-17 10:42:00,41.0,39.1,30.10,NNW,329,5.3,51.0,93,7.87,,,0.00,VWS V13.01,2013-01-17 15:42:00,
2013-01-17 10:47:00,41.2,39.2,30.10,North,352,4.6,51.0,93,7.87,,,0.00,VWS V13.01,2013-01-17 15:47:00,
2013-01-17 10:52:00,41.3,39.4,30.10,NW,323,2.8,51.0,93,7.87,,,0.00,VWS V13.01,2013-01-17 15:52:00,
2013-01-17 10:57:00,41.3,39.3,30.10,WNW,297,5.7,51.0,92,7.87,,,0.00,VWS V13.01,2013-01-17 15:57:00,
2013-01-17 11:02:00,41.4,39.2,30.10,NNW,335,3.5,51.0,92,7.87,,,0.00,VWS V13.01,2013-01-17 16:02:00,
2013-01-17 11:07:00,41.3,39.2,30.10,NW,305,5.8,51.0,92,7.87,,,0.00,VWS V13.01,2013-01-17 16:07:00,
2013-01-17 11:12:00,41.7,39.4,30.10,NW,311,6.6,51.0,91,7.87,,,0.00,VWS V13.01,2013-01-17 16:12:00,
2013-01-17 11:17:00,42.0,39.6,30.10,NW,326,3.0,51.0,91,7.87,,,0.00,VWS V13.01,2013-01-17 16:17:00,
2013-01-17 11:22:00,42.0,39.5,30.11,NW,312,2.8,51.0,91,7.87,,,0.00,VWS V13.01,2013-01-17 16:22:00,
2013-01-17 11:27:00,41.9,39.4,30.11,NW,315,5.0,51.0,91,7.87,,,0.00,VWS V13.01,2013-01-17 16:27:00,
2013-01-17 11:32:00,41.9,39.4,30.11,NW,305,5.3,51.0,91,7.87,,,0.00,VWS V13.01,2013-01-17 16:32:00,
2013-01-17 11:37:00,42.1,39.6,30.10,NW,319,4.1,51.0,91,7.87,,,0.00,VWS V13.01,2013-01-17 16:37:00,
2013-01-17 11:42:00,42.3,39.7,30.10,NW,309,4.7,51.0,90,7.87,,,0.00,VWS V13.01,2013-01-17 16:42:00,
2013-01-17 11:47:00,42.4,39.7,30.10,NNW,338,0.0,51.0,90,7.87,,,0.00,VWS V13.01,2013-01-17 16:47:00,
2013-01-17 11:52:00,42.8,40.0,30.10,NW,321,0.0,51.0,90,7.87,,,0.00,VWS V13.01,2013-01-17 16:52:00,
2013-01-17 11:57:00,43.2,40.1,30.10,WNW,300,4.3,51.0,89,7.87,,,0.00,VWS V13.01,2013-01-17 16:57:00,
2013-01-17 12:02:00,43.0,39.8,30.10,NW,315,3.0,51.0,88,7.87,,,0.00,VWS V13.01,2013-01-17 17:02:00,
2013-01-17 12:07:00,43.1,39.8,30.10,NW,323,3.5,51.0,88,7.87,,,0.00,VWS V13.01,2013-01-17 17:07:00,
2013-01-17 12:12:00,43.1,39.8,30.09,North,349,3.9,51.0,88,7.87,,,0.00,VWS V13.01,2013-01-17 17:12:00,
2013-01-17 12:17:00,43.5,40.2,30.10,NNE,18,3.4,51.0,88,7.87,,,0.00,VWS V13.01,2013-01-17 17:17:00,
2013-01-17 12:22:00,43.4,39.9,30.10,North,4,8.1,51.0,87,7.87,,,0.00,VWS V13.01,2013-01-17 17:22:00,
2013-01-17 12:27:00,43.7,39.9,30.09,NNW,346,2.7,51.0,86,7.87,,,0.00,VWS V13.01,2013-01-17 17:27:00,
2013-01-17 12:32:00,44.1,40.3,30.10,NW,323,5.0,51.0,86,7.87,,,0.00,VWS V13.01,2013-01-17 17:32:00,
2013-01-17 12:37:00,44.5,40.5,30.10,NW,318,7.0,51.0,86,7.87,,,0.00,VWS V13.01,2013-01-17 17:37:00,
2013-01-17 12:42:00,44.9,40.6,30.10,NW,312,6.8,51.0,85,7.87,,,0.00,VWS V13.01,2013-01-17 17:42:00,
2013-01-17 12:47:00,45.2,40.6,30.10,NW,325,6.0,51.0,84,7.87,,,0.00,VWS V13.01,2013-01-17 17:47:00,
2013-01-17 12:52:00,45.5,40.9,30.09,NNW,340,6.2,51.0,84,7.87,,,0.00,VWS V13.01,2013-01-17 17:52:00,
2013-01-17 12:57:00,45.5,40.7,30.09,NNW,332,5.0,51.0,83,7.87,,,0.00,VWS V13.01,2013-01-17 17:57:00,
2013-01-17 13:02:00,45.7,40.8,30.09,NW,305,7.1,51.0,83,7.87,,,0.00,VWS V13.01,2013-01-17 18:02:00,
2013-01-17 13:07:00,45.4,40.4,30.09,North,350,9.3,51.0,82,7.87,,,0.00,VWS V13.01,2013-01-17 18:07:00,
2013-01-17 13:12:00,45.2,40.3,30.09,NW,304,6.5,51.0,83,7.87,,,0.00,VWS V13.01,2013-01-17 18:12:00,
2013-01-17 13:17:00,45.0,40.0,30.08,NNW,336,5.9,51.0,83,7.87,,,0.00,VWS V13.01,2013-01-17 18:17:00,
2013-01-17 13:22:00,45.3,40.3,30.08,NNW,333,6.0,51.0,83,7.87,,,0.00,VWS V13.01,2013-01-17 18:22:00,
2013-01-17 13:27:00,45.4,40.4,30.08,NNE,22,7.5,51.0,83,7.87,,,0.00,VWS V13.01,2013-01-17 18:27:00,
2013-01-17 13:31:00,45.4,40.3,30.09,North,349,2.0,51.0,82,7.87,,,0.00,VWS V13.01,2013-01-17 18:31:00,
2013-01-17 13:36:00,45.5,40.4,30.09,North,354,3.2,51.0,82,7.87,,,0.00,VWS V13.01,2013-01-17 18:36:00,
2013-01-17 13:41:00,45.5,40.3,30.08,NNE,22,5.0,51.0,82,7.87,,,0.00,VWS V13.01,2013-01-17 18:41:00,
2013-01-17 13:46:00,45.2,40.1,30.07,NNE,17,5.8,51.0,82,7.87,,,0.00,VWS V13.01,2013-01-17 18:46:00,
2013-01-17 13:51:00,45.2,40.3,30.07,NE,37,0.0,51.0,83,7.87,,,0.00,VWS V13.01,2013-01-17 18:51:00,
2013-01-17 13:56:00,45.1,40.3,30.07,North,10,3.4,51.0,83,7.87,,,0.00,VWS V13.01,2013-01-17 18:56:00,
2013-01-17 14:01:00,45.0,40.1,30.07,NNW,338,2.3,51.0,83,7.87,,,0.00,VWS V13.01,2013-01-17 19:01:00,
2013-01-17 14:06:00,45.1,40.2,30.07,NW,309,7.3,51.0,83,7.87,,,0.00,VWS V13.01,2013-01-17 19:06:00,
2013-01-17 14:11:00,44.9,40.1,30.07,North,353,3.5,51.0,83,7.87,,,0.00,VWS V13.01,2013-01-17 19:11:00,
2013-01-17 14:16:00,44.9,40.2,30.07,NNW,339,6.4,51.0,83,7.87,,,0.00,VWS V13.01,2013-01-17 19:16:00,
2013-01-17 14:21:00,44.9,40.1,30.08,NNW,328,5.3,51.0,83,7.87,,,0.00,VWS V13.01,2013-01-17 19:21:00,
2013-01-17 14:26:00,44.8,40.1,30.07,NNW,340,4.7,51.0,84,7.87,,,0.00,VWS V13.01,2013-01-17 19:26:00,
2013-01-17 14:31:00,44.9,40.2,30.07,NNW,345,2.1,51.0,83,7.87,,,0.00,VWS V13.01,2013-01-17 19:31:00,
2013-01-17 14:36:00,45.0,40.3,30.08,NNE,27,5.3,51.0,83,7.87,,,0.00,VWS V13.01,2013-01-17 19:36:00,
2013-01-17 14:41:00,45.1,40.3,30.08,NW,311,0.8,51.0,83,7.87,,,0.00,VWS V13.01,2013-01-17 19:41:00,
2013-01-17 14:46:00,45.2,40.5,30.08,WNW,300,2.7,51.0,84,7.87,,,0.00,VWS V13.01,2013-01-17 19:46:00,
2013-01-17 14:51:00,45.2,40.6,30.08,NW,326,0.0,51.0,84,7.87,,,0.00,VWS V13.01,2013-01-17 19:51:00,
2013-01-17 14:56:00,45.1,40.4,30.08,NW,323,2.6,51.0,84,7.87,,,0.00,VWS V13.01,2013-01-17 19:56:00,
2013-01-17 15:01:00,44.9,40.2,30.08,North,350,3.8,51.0,84,7.87,,,0.00,VWS V13.01,2013-01-17 20:01:00,
2013-01-17 15:06:00,44.9,40.3,30.07,North,352,1.6,51.0,84,7.87,,,0.00,VWS V13.01,2013-01-17 20:06:00,
2013-01-17 15:11:00,44.7,40.2,30.08,NE,39,0.0,51.0,84,7.87,,,0.00,VWS V13.01,2013-01-17 20:11:00,
2013-01-17 15:16:00,44.7,40.2,30.08,NW,315,0.0,51.0,84,7.87,,,0.00,VWS V13.01,2013-01-17 20:16:00,
2013-01-17 15:21:00,44.6,40.0,30.08,NNW,343,2.1,51.0,84,7.87,,,0.00,VWS V13.01,2013-01-17 20:21:00,
2013-01-17 15:26:00,44.6,39.9,30.08,NNE,18,1.1,51.0,84,7.87,,,0.00,VWS V13.01,2013-01-17 20:26:00,
2013-01-17 15:31:00,44.6,40.0,30.09,NNE,18,0.0,51.0,84,7.87,,,0.00,VWS V13.01,2013-01-17 20:31:00,
2013-01-17 15:36:00,44.7,40.0,30.09,NNW,342,0.0,51.0,83,7.87,,,0.00,VWS V13.01,2013-01-17 20:36:00,
2013-01-17 15:41:00,44.6,39.8,30.09,NNW,340,2.9,51.0,83,7.87,,,0.00,VWS V13.01,2013-01-17 20:41:00,
2013-01-17 15:46:00,44.5,39.7,30.09,NNE,22,1.9,51.0,83,7.87,,,0.00,VWS V13.01,2013-01-17 20:46:00,
2013-01-17 15:51:00,44.3,39.5,30.10,North,4,0.0,51.0,83,7.87,,,0.00,VWS V13.01,2013-01-17 20:51:00,
2013-01-17 15:56:00,44.3,39.5,30.10,NNE,24,0.0,51.0,83,7.87,,,0.00,VWS V13.01,2013-01-17 20:56:00,
2013-01-17 16:01:00,44.1,39.2,30.10,NNW,329,0.0,51.0,83,7.87,,,0.00,VWS V13.01,2013-01-17 21:01:00,
2013-01-17 16:06:00,44.0,39.1,30.09,NW,322,2.3,51.0,83,7.87,,,0.00,VWS V13.01,2013-01-17 21:06:00,
2013-01-17 16:11:00,44.0,39.2,30.08,NNW,345,0.0,51.0,83,7.87,,,0.00,VWS V13.01,2013-01-17 21:11:00,
2013-01-17 16:16:00,44.0,39.2,30.08,NNW,345,0.0,51.0,83,7.87,,,0.00,VWS V13.01,2013-01-17 21:16:00,
2013-01-17 16:21:00,43.9,39.2,30.09,NNW,345,0.0,51.0,83,7.87,,,0.00,VWS V13.01,2013-01-17 21:21:00,
2013-01-17 16:26:00,44.1,39.7,30.10,NNW,345,0.0,51.0,84,7.87,,,0.00,VWS V13.01,2013-01-17 21:26:00,
2013-01-17 16:31:00,43.7,39.2,30.10,NNW,345,0.0,51.0,84,7.87,,,0.00,VWS V13.01,2013-01-17 21:31:00,
2013-01-17 16:36:00,43.8,39.3,30.10,NNW,345,0.0,51.0,84,7.87,,,0.00,VWS V13.01,2013-01-17 21:36:00,
2013-01-17 16:41:00,43.9,39.6,30.10,NNW,345,0.0,51.0,85,7.87,,,0.00,VWS V13.01,2013-01-17 21:41:00,
2013-01-17 16:46:00,43.6,39.2,30.12,NNW,345,0.0,51.0,84,7.87,,,0.00,VWS V13.01,2013-01-17 21:46:00,
2013-01-17 16:51:00,43.7,39.3,30.13,NNW,345,0.0,51.0,84,7.87,,,0.00,VWS V13.01,2013-01-17 21:51:00,
2013-01-17 16:56:00,43.5,39.2,30.11,NNW,345,0.0,51.0,85,7.87,,,0.00,VWS V13.01,2013-01-17 21:56:00,
2013-01-17 17:01:00,43.3,39.3,30.11,NNW,345,0.0,51.0,86,7.87,,,0.00,VWS V13.01,2013-01-17 22:01:00,
2013-01-17 17:06:00,43.3,39.5,30.12,NNW,345,0.0,51.0,86,7.87,,,0.00,VWS V13.01,2013-01-17 22:06:00,
2013-01-17 17:11:00,43.1,39.4,30.12,NNW,345,0.0,51.0,87,7.87,,,0.00,VWS V13.01,2013-01-17 22:11:00,
2013-01-17 17:16:00,43.3,39.7,30.13,NNW,345,0.0,51.0,87,7.87,,,0.00,VWS V13.01,2013-01-17 22:16:00,
2013-01-17 17:21:00,43.3,40.1,30.11,NNW,345,0.0,51.0,88,7.87,,,0.00,VWS V13.01,2013-01-17 22:21:00,
2013-01-17 17:26:00,43.0,39.9,30.11,NNW,345,0.0,51.0,89,7.87,,,0.00,VWS V13.01,2013-01-17 22:26:00,
2013-01-17 17:31:00,42.6,39.6,30.10,NNW,345,0.0,51.0,89,7.87,,,0.00,VWS V13.01,2013-01-17 22:31:00,
2013-01-17 17:36:00,42.5,39.5,30.10,NNW,345,0.0,51.0,89,7.87,,,0.00,VWS V13.01,2013-01-17 22:36:00,
2013-01-17 17:41:00,42.4,39.7,30.10,NNW,345,0.0,51.0,90,7.87,,,0.00,VWS V13.01,2013-01-17 22:41:00,
2013-01-17 17:46:00,42.2,39.5,30.10,NNW,345,0.0,51.0,90,7.87,,,0.00,VWS V13.01,2013-01-17 22:46:00,
2013-01-17 17:51:00,42.2,39.5,30.10,NNW,345,0.0,51.0,90,7.87,,,0.00,VWS V13.01,2013-01-17 22:51:00,
2013-01-17 17:56:00,41.9,39.5,30.11,NNW,345,0.0,51.0,91,7.87,,,0.00,VWS V13.01,2013-01-17 22:56:00,
2013-01-17 18:01:00,42.1,40.0,30.11,NNW,345,0.0,51.0,92,7.87,,,0.00,VWS V13.01,2013-01-17 23:01:00,
2013-01-17 18:06:00,42.1,40.2,30.12,NNW,345,0.0,51.0,93,7.87,,,0.00,VWS V13.01,2013-01-17 23:06:00,
2013-01-17 18:11:00,42.3,40.7,30.12,NNW,345,0.0,51.0,94,7.87,,,0.00,VWS V13.01,2013-01-17 23:11:00,
2013-01-17 18:16:00,42.2,40.7,30.12,NNW,345,0.0,51.0,94,7.87,,,0.00,VWS V13.01,2013-01-17 23:16:00,
2013-01-17 18:21:00,42.2,40.7,30.12,NNW,345,0.0,51.0,94,7.87,,,0.00,VWS V13.01,2013-01-17 23:21:00,
2013-01-17 18:26:00,42.0,40.2,30.11,NNW,345,0.0,51.0,93,7.87,,,0.00,VWS V13.01,2013-01-17 23:26:00,
2013-01-17 18:31:00,42.1,40.5,30.11,NNW,345,0.0,51.0,94,7.87,,,0.00,VWS V13.01,2013-01-17 23:31:00,
2013-01-17 18:36:00,42.0,40.6,30.13,NNW,345,0.0,51.0,95,7.87,,,0.00,VWS V13.01,2013-01-17 23:36:00,
2013-01-17 18:41:00,41.9,40.6,30.13,NNW,345,0.0,51.0,95,7.87,,,0.00,VWS V13.01,2013-01-17 23:41:00,
2013-01-17 18:46:00,42.0,40.6,30.13,NNW,345,0.0,51.0,95,7.87,,,0.00,VWS V13.01,2013-01-17 23:46:00,
2013-01-17 18:51:00,41.8,40.1,30.11,NNW,345,0.0,51.0,94,7.87,,,0.00,VWS V13.01,2013-01-17 23:51:00,
2013-01-17 18:56:00,41.7,39.9,30.11,NNW,345,0.0,51.0,93,7.87,,,0.00,VWS V13.01,2013-01-17 23:56:00,
2013-01-17 19:01:00,41.6,39.8,30.11,NNW,345,0.0,51.0,93,7.87,,,0.00,VWS V13.01,2013-01-18 00:01:00,
2013-01-17 19:06:00,41.7,40.0,30.11,NNW,345,0.0,51.0,94,7.87,,,0.00,VWS V13.01,2013-01-18 00:06:00,
2013-01-17 19:11:00,41.7,40.1,30.12,NNW,329,0.0,51.0,94,7.87,,,0.00,VWS V13.01,2013-01-18 00:11:00,
2013-01-17 19:16:00,41.8,40.0,30.12,NNW,329,0.0,51.0,93,7.87,,,0.00,VWS V13.01,2013-01-18 00:16:00,
2013-01-17 19:21:00,41.8,39.8,30.11,NNW,329,0.0,51.0,92,7.87,,,0.00,VWS V13.01,2013-01-18 00:21:00,
2013-01-17 19:26:00,41.5,39.4,30.11,NNW,329,0.0,51.0,92,7.87,,,0.00,VWS V13.01,2013-01-18 00:26:00,
2013-01-17 19:31:00,41.7,39.6,30.11,NNW,329,0.0,51.0,92,7.87,,,0.00,VWS V13.01,2013-01-18 00:31:00,
2013-01-17 19:36:00,41.7,39.5,30.12,NNW,329,0.0,51.0,92,7.87,,,0.00,VWS V13.01,2013-01-18 00:36:00,
2013-01-17 19:41:00,41.6,39.5,30.13,NNW,329,0.0,51.0,92,7.87,,,0.00,VWS V13.01,2013-01-18 00:41:00,
2013-01-17 19:46:00,41.7,39.8,30.12,NNW,329,0.0,51.0,93,7.87,,,0.00,VWS V13.01,2013-01-18 00:46:00,
2013-01-17 19:51:00,41.3,39.2,30.13,NNW,329,0.0,51.0,92,7.87,,,0.00,VWS V13.01,2013-01-18 00:51:00,
2013-01-17 19:56:00,41.4,39.2,30.12,NNW,329,0.0,51.0,92,7.87,,,0.00,VWS V13.01,2013-01-18 00:56:00,
2013-01-17 20:01:00,41.2,38.8,30.12,NNW,329,0.0,51.0,91,7.87,,,0.00,VWS V13.01,2013-01-18 01:01:00,
2013-01-17 20:06:00,41.2,38.6,30.11,NNW,329,0.0,51.0,90,7.87,,,0.00,VWS V13.01,2013-01-18 01:06:00,
2013-01-17 20:11:00,41.0,38.4,30.11,NNW,329,0.0,51.0,90,7.87,,,0.00,VWS V13.01,2013-01-18 01:11:00,
2013-01-17 20:16:00,41.3,38.7,30.11,NNW,329,0.0,51.0,90,7.87,,,0.00,VWS V13.01,2013-01-18 01:16:00,
2013-01-17 20:21:00,41.2,38.6,30.10,NNW,329,0.0,51.0,90,7.87,,,0.00,VWS V13.01,2013-01-18 01:21:00,
2013-01-17 20:26:00,41.1,38.7,30.09,NNW,329,0.0,51.0,91,7.87,,,0.00,VWS V13.01,2013-01-18 01:26:00,
2013-01-17 20:31:00,41.2,39.0,30.09,NNW,329,0.0,51.0,92,7.87,,,0.00,VWS V13.01,2013-01-18 01:31:00,
2013-01-17 20:36:00,41.3,39.2,30.08,NNW,329,0.0,51.0,92,7.87,,,0.00,VWS V13.01,2013-01-18 01:36:00,
2013-01-17 20:41:00,41.2,39.1,30.09,NNW,329,0.0,51.0,92,7.87,,,0.00,VWS V13.01,2013-01-18 01:41:00,
2013-01-17 20:46:00,41.2,39.3,30.09,NNW,329,0.0,51.0,93,7.87,,,0.00,VWS V13.01,2013-01-18 01:46:00,
2013-01-17 20:51:00,41.0,39.4,30.08,NNW,329,0.0,51.0,94,7.87,,,0.00,VWS V13.01,2013-01-18 01:51:00,
2013-01-17 20:56:00,41.0,39.4,30.09,NNW,329,0.0,51.0,94,7.87,,,0.00,VWS V13.01,2013-01-18 01:56:00,
2013-01-17 21:01:00,40.7,39.1,30.08,NNW,329,0.0,51.0,94,7.87,,,0.00,VWS V13.01,2013-01-18 02:01:00,
2013-01-17 21:06:00,40.4,38.8,30.10,NNW,329,0.0,51.0,94,7.87,,,0.00,VWS V13.01,2013-01-18 02:06:00,
2013-01-17 21:11:00,40.6,39.1,30.09,NNW,329,0.0,51.0,94,7.87,,,0.00,VWS V13.01,2013-01-18 02:11:00,
2013-01-17 21:16:00,40.6,39.3,30.09,NNW,329,0.0,51.0,95,7.87,,,0.00,VWS V13.01,2013-01-18 02:16:00,
2013-01-17 21:21:00,40.6,39.3,30.09,NNW,329,0.0,51.0,95,7.87,,,0.00,VWS V13.01,2013-01-18 02:21:00,
2013-01-17 21:26:00,40.4,39.2,30.08,NNW,329,0.0,51.0,95,7.87,,,0.00,VWS V13.01,2013-01-18 02:26:00,
2013-01-17 21:31:00,40.0,38.8,30.08,NNW,329,0.0,51.0,95,7.87,,,0.00,VWS V13.01,2013-01-18 02:31:00,
2013-01-17 21:36:00,40.2,39.0,30.08,NNW,329,0.0,51.0,96,7.87,,,0.00,VWS V13.01,2013-01-18 02:36:00,
2013-01-17 21:41:00,40.1,38.9,30.07,NNW,329,0.0,51.0,96,7.87,,,0.00,VWS V13.01,2013-01-18 02:41:00,
2013-01-17 21:46:00,40.3,39.1,30.07,NNW,329,0.0,51.0,96,7.87,,,0.00,VWS V13.01,2013-01-18 02:46:00,
2013-01-17 21:51:00,40.3,39.2,30.07,NNW,329,0.0,51.0,96,7.87,,,0.00,VWS V13.01,2013-01-18 02:51:00,
2013-01-17 21:56:00,40.2,39.1,30.05,NNW,329,0.0,51.0,96,7.87,,,0.00,VWS V13.01,2013-01-18 02:56:00,
2013-01-17 22:01:00,39.7,38.6,30.05,NNW,329,0.0,51.0,96,7.87,,,0.00,VWS V13.01,2013-01-18 03:01:00,
2013-01-17 22:06:00,40.3,39.2,30.05,NNW,329,0.0,51.0,96,7.87,,,0.00,VWS V13.01,2013-01-18 03:06:00,
2013-01-17 22:11:00,40.2,39.1,30.04,NNW,329,0.0,51.0,96,7.87,,,0.00,VWS V13.01,2013-01-18 03:11:00,
2013-01-17 22:16:00,40.2,39.1,30.03,NNW,329,0.0,51.0,96,7.87,,,0.00,VWS V13.01,2013-01-18 03:16:00,
2013-01-17 22:21:00,40.1,38.9,30.05,NNW,329,0.0,51.0,95,7.87,,,0.00,VWS V13.01,2013-01-18 03:21:00,
2013-01-17 22:26:00,39.9,38.6,30.06,NNE,15,0.0,51.0,95,7.87,,,0.00,VWS V13.01,2013-01-18 03:26:00,
2013-01-17 22:31:00,40.1,38.5,30.06,North,0,2.2,51.0,94,7.87,,,0.00,VWS V13.01,2013-01-18 03:31:00,
2013-01-17 22:36:00,39.9,38.1,30.05,ESE,118,0.0,51.0,93,7.87,,,0.00,VWS V13.01,2013-01-18 03:36:00,
2013-01-17 22:41:00,40.4,38.4,30.05,NW,308,0.8,51.0,92,7.87,,,0.00,VWS V13.01,2013-01-18 03:41:00,
2013-01-17 22:46:00,40.2,38.0,30.06,NNE,20,0.0,51.0,92,7.87,,,0.00,VWS V13.01,2013-01-18 03:46:00,
2013-01-17 22:50:00,40.0,37.6,30.07,NNE,22,2.2,51.0,91,7.87,,,0.00,VWS V13.01,2013-01-18 03:50:00,
2013-01-17 22:55:00,39.9,37.4,30.07,NNE,17,0.0,51.0,91,7.87,,,0.00,VWS V13.01,2013-01-18 03:55:00,
2013-01-17 23:01:00,40.3,37.8,30.08,NNW,343,0.0,51.0,90,7.87,,,0.00,VWS V13.01,2013-01-18 04:01:00,
2013-01-17 23:06:00,40.3,37.8,30.08,NNW,333,4.3,51.0,91,7.87,,,0.00,VWS V13.01,2013-01-18 04:06:00,
2013-01-17 23:10:00,40.4,38.0,30.07,NW,311,1.7,51.0,91,7.87,,,0.00,VWS V13.01,2013-01-18 04:10:00,
2013-01-17 23:15:00,40.3,37.9,30.06,NNE,30,5.5,51.0,91,7.87,,,0.00,VWS V13.01,2013-01-18 04:15:00,
2013-01-17 23:20:00,40.3,37.8,30.05,NNE,13,0.0,51.0,91,7.87,,,0.00,VWS V13.01,2013-01-18 04:20:00,
2013-01-17 23:25:00,40.2,37.7,30.05,NNE,22,3.4,51.0,91,7.87,,,0.00,VWS V13.01,2013-01-18 04:25:00,
2013-01-17 23:30:00,40.0,37.6,30.06,North,3,4.7,51.0,91,7.87,,,0.00,VWS V13.01,2013-01-18 04:30:00,
2013-01-17 23:35:00,40.1,37.7,30.07,North,0,4.6,51.0,91,7.87,,,0.00,VWS V13.01,2013-01-18 04:35:00,
2013-01-17 23:40:00,39.9,37.5,30.06,NE,45,1.9,51.0,91,7.87,,,0.00,VWS V13.01,2013-01-18 04:40:00,
2013-01-17 23:45:00,39.8,37.5,30.04,NE,48,2.0,51.0,91,7.87,,,0.00,VWS V13.01,2013-01-18 04:45:00,
2013-01-17 23:50:00,39.6,37.2,30.05,North,1,0.0,51.0,91,7.87,,,0.00,VWS V13.01,2013-01-18 04:50:00,
2013-01-17 23:55:00,39.8,37.6,30.05,ENE,75,3.4,51.0,92,7.87,,,0.00,VWS V13.01,2013-01-18 04:55:00,